sensor_id;sensor_type;location;lat;lon;timestamp;temperature;humidity
47825;DHT22;33589;48.242;14.676;2023-08-01T00:01:28;23.40;60.90
47825;DHT22;33589;48.242;14.676;2023-08-01T00:03:54;23.40;60.70
47825;DHT22;33589;48.242;14.676;2023-08-01T00:06:20;23.50;60.90
47825;DHT22;33589;48.242;14.676;2023-08-01T00:08:47;23.30;60.50
47825;DHT22;33589;48.242;14.676;2023-08-01T00:11:13;23.30;60.70
47825;DHT22;33589;48.242;14.676;2023-08-01T00:13:40;23.40;60.80
47825;DHT22;33589;48.242;14.676;2023-08-01T00:16:06;23.40;60.70
47825;DHT22;33589;48.242;14.676;2023-08-01T00:18:31;23.40;60.80
47825;DHT22;33589;48.242;14.676;2023-08-01T00:20:57;23.40;60.80
47825;DHT22;33589;48.242;14.676;2023-08-01T00:23:24;23.30;60.40
47825;DHT22;33589;48.242;14.676;2023-08-01T00:25:50;23.40;60.50
47825;DHT22;33589;48.242;14.676;2023-08-01T00:28:22;23.30;60.50
47825;DHT22;33589;48.242;14.676;2023-08-01T00:30:48;23.30;60.70
47825;DHT22;33589;48.242;14.676;2023-08-01T00:33:14;23.40;60.80
47825;DHT22;33589;48.242;14.676;2023-08-01T00:35:40;23.40;60.70
47825;DHT22;33589;48.242;14.676;2023-08-01T00:38:06;23.40;60.50
47825;DHT22;33589;48.242;14.676;2023-08-01T00:40:32;23.40;60.50
47825;DHT22;33589;48.242;14.676;2023-08-01T00:42:59;23.40;60.40
47825;DHT22;33589;48.242;14.676;2023-08-01T00:45:28;23.40;60.50
47825;DHT22;33589;48.242;14.676;2023-08-01T00:47:54;23.40;60.20
47825;DHT22;33589;48.242;14.676;2023-08-01T00:50:21;23.40;60.20
47825;DHT22;33589;48.242;14.676;2023-08-01T00:52:48;23.40;60.50
47825;DHT22;33589;48.242;14.676;2023-08-01T00:55:15;23.40;60.70
47825;DHT22;33589;48.242;14.676;2023-08-01T00:57:42;23.40;60.90
47825;DHT22;33589;48.242;14.676;2023-08-01T01:00:08;23.40;61.20
47825;DHT22;33589;48.242;14.676;2023-08-01T01:02:35;23.40;61.20
47825;DHT22;33589;48.242;14.676;2023-08-01T01:05:02;23.30;61.30
47825;DHT22;33589;48.242;14.676;2023-08-01T01:07:29;23.20;61.40
47825;DHT22;33589;48.242;14.676;2023-08-01T01:09:54;23.10;61.20
47825;DHT22;33589;48.242;14.676;2023-08-01T01:12:20;23.10;61.70
47825;DHT22;33589;48.242;14.676;2023-08-01T01:14:46;22.90;61.50
47825;DHT22;33589;48.242;14.676;2023-08-01T01:17:12;22.90;61.80
47825;DHT22;33589;48.242;14.676;2023-08-01T01:19:38;22.90;61.90
47825;DHT22;33589;48.242;14.676;2023-08-01T01:22:16;22.90;61.80
47825;DHT22;33589;48.242;14.676;2023-08-01T01:24:42;23.00;62.10
47825;DHT22;33589;48.242;14.676;2023-08-01T01:27:09;23.00;62.70
47825;DHT22;33589;48.242;14.676;2023-08-01T01:29:35;22.90;62.00
47825;DHT22;33589;48.242;14.676;2023-08-01T01:32:03;23.00;62.10
47825;DHT22;33589;48.242;14.676;2023-08-01T01:34:30;23.10;62.00
47825;DHT22;33589;48.242;14.676;2023-08-01T01:36:56;23.10;62.40
47825;DHT22;33589;48.242;14.676;2023-08-01T01:39:21;23.00;62.30
47825;DHT22;33589;48.242;14.676;2023-08-01T01:41:47;23.00;62.50
47825;DHT22;33589;48.242;14.676;2023-08-01T01:44:12;23.00;62.50
47825;DHT22;33589;48.242;14.676;2023-08-01T01:46:38;22.80;62.70
47825;DHT22;33589;48.242;14.676;2023-08-01T01:49:04;22.90;62.30
47825;DHT22;33589;48.242;14.676;2023-08-01T01:51:30;22.90;62.00
47825;DHT22;33589;48.242;14.676;2023-08-01T01:53:56;23.00;62.00
47825;DHT22;33589;48.242;14.676;2023-08-01T01:56:22;23.10;62.20
47825;DHT22;33589;48.242;14.676;2023-08-01T01:58:48;23.00;62.00
47825;DHT22;33589;48.242;14.676;2023-08-01T02:01:13;23.00;62.00
47825;DHT22;33589;48.242;14.676;2023-08-01T02:03:39;23.10;62.70
47825;DHT22;33589;48.242;14.676;2023-08-01T02:06:05;23.10;62.00
47825;DHT22;33589;48.242;14.676;2023-08-01T02:08:31;23.10;62.00
47825;DHT22;33589;48.242;14.676;2023-08-01T02:10:57;23.10;62.90
47825;DHT22;33589;48.242;14.676;2023-08-01T02:13:28;23.00;62.80
47825;DHT22;33589;48.242;14.676;2023-08-01T02:15:54;22.90;61.30
47825;DHT22;33589;48.242;14.676;2023-08-01T02:18:20;23.10;61.80
47825;DHT22;33589;48.242;14.676;2023-08-01T02:20:46;23.00;61.30
47825;DHT22;33589;48.242;14.676;2023-08-01T02:23:11;23.10;61.50
47825;DHT22;33589;48.242;14.676;2023-08-01T02:25:41;23.10;60.80
47825;DHT22;33589;48.242;14.676;2023-08-01T02:28:07;23.10;60.70
47825;DHT22;33589;48.242;14.676;2023-08-01T02:30:35;23.20;60.50
47825;DHT22;33589;48.242;14.676;2023-08-01T02:33:01;23.10;59.90
47825;DHT22;33589;48.242;14.676;2023-08-01T02:35:26;23.30;59.70
47825;DHT22;33589;48.242;14.676;2023-08-01T02:37:54;23.20;60.00
47825;DHT22;33589;48.242;14.676;2023-08-01T02:40:20;23.40;60.00
47825;DHT22;33589;48.242;14.676;2023-08-01T02:42:45;23.20;60.20
47825;DHT22;33589;48.242;14.676;2023-08-01T02:45:11;23.10;60.00
47825;DHT22;33589;48.242;14.676;2023-08-01T02:47:37;23.20;60.00
47825;DHT22;33589;48.242;14.676;2023-08-01T02:50:03;23.20;60.20
47825;DHT22;33589;48.242;14.676;2023-08-01T02:52:29;23.10;61.20
47825;DHT22;33589;48.242;14.676;2023-08-01T02:54:55;23.10;62.40
47825;DHT22;33589;48.242;14.676;2023-08-01T02:57:21;23.00;63.10
47825;DHT22;33589;48.242;14.676;2023-08-01T02:59:47;22.80;63.30
47825;DHT22;33589;48.242;14.676;2023-08-01T03:02:12;22.70;63.10
47825;DHT22;33589;48.242;14.676;2023-08-01T03:04:38;22.70;63.10
47825;DHT22;33589;48.242;14.676;2023-08-01T03:07:04;22.60;63.20
47825;DHT22;33589;48.242;14.676;2023-08-01T03:09:29;22.60;62.60
47825;DHT22;33589;48.242;14.676;2023-08-01T03:11:55;22.60;62.20
47825;DHT22;33589;48.242;14.676;2023-08-01T03:14:20;22.60;62.00
47825;DHT22;33589;48.242;14.676;2023-08-01T03:16:46;22.70;61.80
47825;DHT22;33589;48.242;14.676;2023-08-01T03:19:12;22.60;61.70
47825;DHT22;33589;48.242;14.676;2023-08-01T03:21:38;22.70;61.50
47825;DHT22;33589;48.242;14.676;2023-08-01T03:24:04;22.70;61.60
47825;DHT22;33589;48.242;14.676;2023-08-01T03:26:35;22.80;61.70
47825;DHT22;33589;48.242;14.676;2023-08-01T03:29:00;22.80;61.60
47825;DHT22;33589;48.242;14.676;2023-08-01T03:31:26;22.90;61.80
47825;DHT22;33589;48.242;14.676;2023-08-01T03:33:53;22.90;61.60
47825;DHT22;33589;48.242;14.676;2023-08-01T03:36:18;22.80;61.70
47825;DHT22;33589;48.242;14.676;2023-08-01T03:38:44;22.90;61.70
47825;DHT22;33589;48.242;14.676;2023-08-01T03:41:10;22.90;61.60
47825;DHT22;33589;48.242;14.676;2023-08-01T03:43:36;22.90;61.70
47825;DHT22;33589;48.242;14.676;2023-08-01T03:46:02;22.70;61.50
47825;DHT22;33589;48.242;14.676;2023-08-01T03:48:28;22.60;61.50
47825;DHT22;33589;48.242;14.676;2023-08-01T03:50:53;22.50;61.70
47825;DHT22;33589;48.242;14.676;2023-08-01T03:53:19;22.60;61.90
47825;DHT22;33589;48.242;14.676;2023-08-01T03:55:46;22.50;61.80
47825;DHT22;33589;48.242;14.676;2023-08-01T03:58:12;22.60;62.80
47825;DHT22;33589;48.242;14.676;2023-08-01T04:00:38;22.50;62.00
47825;DHT22;33589;48.242;14.676;2023-08-01T04:03:03;22.50;62.00
47825;DHT22;33589;48.242;14.676;2023-08-01T04:05:29;22.60;61.90
47825;DHT22;33589;48.242;14.676;2023-08-01T04:07:54;22.70;62.00
47825;DHT22;33589;48.242;14.676;2023-08-01T04:10:24;22.80;62.20
47825;DHT22;33589;48.242;14.676;2023-08-01T04:12:49;22.70;61.90
47825;DHT22;33589;48.242;14.676;2023-08-01T04:15:15;22.70;62.20
47825;DHT22;33589;48.242;14.676;2023-08-01T04:17:41;22.70;62.30
47825;DHT22;33589;48.242;14.676;2023-08-01T04:20:07;22.70;62.50
47825;DHT22;33589;48.242;14.676;2023-08-01T04:22:33;22.60;62.70
47825;DHT22;33589;48.242;14.676;2023-08-01T04:24:58;22.50;63.10
47825;DHT22;33589;48.242;14.676;2023-08-01T04:27:24;22.40;62.90
47825;DHT22;33589;48.242;14.676;2023-08-01T04:29:50;22.40;63.40
47825;DHT22;33589;48.242;14.676;2023-08-01T04:32:15;22.20;63.50
47825;DHT22;33589;48.242;14.676;2023-08-01T04:34:41;22.40;63.70
47825;DHT22;33589;48.242;14.676;2023-08-01T04:37:07;22.30;63.20
47825;DHT22;33589;48.242;14.676;2023-08-01T04:39:33;22.30;63.10
47825;DHT22;33589;48.242;14.676;2023-08-01T04:41:59;22.20;63.20
47825;DHT22;33589;48.242;14.676;2023-08-01T04:44:25;22.30;63.10
47825;DHT22;33589;48.242;14.676;2023-08-01T04:46:50;22.20;63.20
47825;DHT22;33589;48.242;14.676;2023-08-01T04:49:16;22.10;63.70
47825;DHT22;33589;48.242;14.676;2023-08-01T04:51:41;22.10;64.00
47825;DHT22;33589;48.242;14.676;2023-08-01T04:54:07;22.10;64.20
47825;DHT22;33589;48.242;14.676;2023-08-01T04:56:32;22.20;64.50
47825;DHT22;33589;48.242;14.676;2023-08-01T04:58:58;22.10;66.20
47825;DHT22;33589;48.242;14.676;2023-08-01T05:01:24;22.10;64.90
47825;DHT22;33589;48.242;14.676;2023-08-01T05:03:49;22.10;63.90
47825;DHT22;33589;48.242;14.676;2023-08-01T05:06:15;22.10;63.50
47825;DHT22;33589;48.242;14.676;2023-08-01T05:08:40;22.20;63.60
47825;DHT22;33589;48.242;14.676;2023-08-01T05:11:06;22.20;63.50
47825;DHT22;33589;48.242;14.676;2023-08-01T05:13:32;22.30;63.40
47825;DHT22;33589;48.242;14.676;2023-08-01T05:15:57;22.40;63.40
47825;DHT22;33589;48.242;14.676;2023-08-01T05:18:23;22.30;63.10
47825;DHT22;33589;48.242;14.676;2023-08-01T05:20:48;22.40;63.40
47825;DHT22;33589;48.242;14.676;2023-08-01T05:23:14;22.50;62.90
47825;DHT22;33589;48.242;14.676;2023-08-01T05:25:40;22.70;62.60
47825;DHT22;33589;48.242;14.676;2023-08-01T05:28:05;23.00;62.30
47825;DHT22;33589;48.242;14.676;2023-08-01T05:30:31;22.70;62.00
47825;DHT22;33589;48.242;14.676;2023-08-01T05:32:57;22.60;62.60
47825;DHT22;33589;48.242;14.676;2023-08-01T05:35:22;22.60;62.90
47825;DHT22;33589;48.242;14.676;2023-08-01T05:37:48;22.60;63.00
47825;DHT22;33589;48.242;14.676;2023-08-01T05:40:13;22.50;63.20
47825;DHT22;33589;48.242;14.676;2023-08-01T05:42:39;22.60;63.50
47825;DHT22;33589;48.242;14.676;2023-08-01T05:45:05;22.70;63.40
47825;DHT22;33589;48.242;14.676;2023-08-01T05:47:31;22.80;63.10
47825;DHT22;33589;48.242;14.676;2023-08-01T05:49:56;22.70;63.10
47825;DHT22;33589;48.242;14.676;2023-08-01T05:52:22;22.80;63.30
47825;DHT22;33589;48.242;14.676;2023-08-01T05:54:48;22.80;63.30
47825;DHT22;33589;48.242;14.676;2023-08-01T05:57:14;22.90;63.20
47825;DHT22;33589;48.242;14.676;2023-08-01T05:59:39;22.90;63.00
47825;DHT22;33589;48.242;14.676;2023-08-01T06:02:06;22.90;63.30
47825;DHT22;33589;48.242;14.676;2023-08-01T06:04:31;22.80;63.50
47825;DHT22;33589;48.242;14.676;2023-08-01T06:06:57;22.90;63.40
47825;DHT22;33589;48.242;14.676;2023-08-01T06:09:24;22.90;63.30
47825;DHT22;33589;48.242;14.676;2023-08-01T06:11:50;22.90;62.50
47825;DHT22;33589;48.242;14.676;2023-08-01T06:14:15;22.90;61.90
47825;DHT22;33589;48.242;14.676;2023-08-01T06:16:41;22.90;61.60
47825;DHT22;33589;48.242;14.676;2023-08-01T06:19:07;22.90;61.90
47825;DHT22;33589;48.242;14.676;2023-08-01T06:21:33;22.90;61.10
47825;DHT22;33589;48.242;14.676;2023-08-01T06:23:58;23.00;60.50
47825;DHT22;33589;48.242;14.676;2023-08-01T06:26:24;23.00;59.70
47825;DHT22;33589;48.242;14.676;2023-08-01T06:28:50;23.00;58.50
47825;DHT22;33589;48.242;14.676;2023-08-01T06:31:19;22.90;58.80
47825;DHT22;33589;48.242;14.676;2023-08-01T06:33:45;22.90;59.10
47825;DHT22;33589;48.242;14.676;2023-08-01T06:36:10;22.70;59.80
47825;DHT22;33589;48.242;14.676;2023-08-01T06:38:36;22.50;60.80
47825;DHT22;33589;48.242;14.676;2023-08-01T06:41:01;22.30;63.00
47825;DHT22;33589;48.242;14.676;2023-08-01T06:43:28;22.40;62.90
47825;DHT22;33589;48.242;14.676;2023-08-01T06:45:54;22.20;63.10
47825;DHT22;33589;48.242;14.676;2023-08-01T06:48:19;22.20;63.00
47825;DHT22;33589;48.242;14.676;2023-08-01T06:50:45;22.30;63.30
47825;DHT22;33589;48.242;14.676;2023-08-01T06:53:11;22.50;62.60
47825;DHT22;33589;48.242;14.676;2023-08-01T06:55:37;22.40;62.30
47825;DHT22;33589;48.242;14.676;2023-08-01T06:58:03;22.50;62.20
47825;DHT22;33589;48.242;14.676;2023-08-01T07:00:28;22.70;62.00
47825;DHT22;33589;48.242;14.676;2023-08-01T07:02:54;22.40;62.00
47825;DHT22;33589;48.242;14.676;2023-08-01T07:05:20;22.50;62.30
47825;DHT22;33589;48.242;14.676;2023-08-01T07:07:45;22.70;61.80
47825;DHT22;33589;48.242;14.676;2023-08-01T07:10:11;22.70;61.80
47825;DHT22;33589;48.242;14.676;2023-08-01T07:12:36;22.90;61.70
47825;DHT22;33589;48.242;14.676;2023-08-01T07:15:02;23.10;61.80
47825;DHT22;33589;48.242;14.676;2023-08-01T07:17:28;23.30;61.30
47825;DHT22;33589;48.242;14.676;2023-08-01T07:19:54;23.50;60.80
47825;DHT22;33589;48.242;14.676;2023-08-01T07:22:20;23.60;59.80
47825;DHT22;33589;48.242;14.676;2023-08-01T07:24:46;23.50;60.50
47825;DHT22;33589;48.242;14.676;2023-08-01T07:27:11;23.50;60.50
47825;DHT22;33589;48.242;14.676;2023-08-01T07:29:37;23.70;60.40
47825;DHT22;33589;48.242;14.676;2023-08-01T07:32:04;23.80;60.50
47825;DHT22;33589;48.242;14.676;2023-08-01T07:34:29;23.90;60.00
47825;DHT22;33589;48.242;14.676;2023-08-01T07:36:55;23.80;59.80
47825;DHT22;33589;48.242;14.676;2023-08-01T07:39:21;23.80;59.30
47825;DHT22;33589;48.242;14.676;2023-08-01T07:41:47;23.70;59.10
47825;DHT22;33589;48.242;14.676;2023-08-01T07:44:12;23.70;59.30
47825;DHT22;33589;48.242;14.676;2023-08-01T07:46:38;23.70;59.40
47825;DHT22;33589;48.242;14.676;2023-08-01T07:49:04;23.70;59.10
47825;DHT22;33589;48.242;14.676;2023-08-01T07:51:29;23.70;59.40
47825;DHT22;33589;48.242;14.676;2023-08-01T07:53:55;23.70;59.70
47825;DHT22;33589;48.242;14.676;2023-08-01T07:56:22;23.60;58.80
47825;DHT22;33589;48.242;14.676;2023-08-01T07:58:47;23.60;59.30
47825;DHT22;33589;48.242;14.676;2023-08-01T08:01:13;23.70;59.90
47825;DHT22;33589;48.242;14.676;2023-08-01T08:03:39;23.60;60.00
47825;DHT22;33589;48.242;14.676;2023-08-01T08:06:04;23.60;60.10
47825;DHT22;33589;48.242;14.676;2023-08-01T08:08:31;23.70;59.70
47825;DHT22;33589;48.242;14.676;2023-08-01T08:10:59;23.60;59.60
47825;DHT22;33589;48.242;14.676;2023-08-01T08:13:25;23.60;59.90
47825;DHT22;33589;48.242;14.676;2023-08-01T08:15:51;23.50;59.90
47825;DHT22;33589;48.242;14.676;2023-08-01T08:18:16;23.50;60.60
47825;DHT22;33589;48.242;14.676;2023-08-01T08:20:45;23.30;60.60
47825;DHT22;33589;48.242;14.676;2023-08-01T08:23:11;23.20;60.70
47825;DHT22;33589;48.242;14.676;2023-08-01T08:25:44;23.20;60.80
47825;DHT22;33589;48.242;14.676;2023-08-01T08:28:13;23.20;60.80
47825;DHT22;33589;48.242;14.676;2023-08-01T08:30:39;23.10;62.10
47825;DHT22;33589;48.242;14.676;2023-08-01T08:33:04;23.00;63.30
47825;DHT22;33589;48.242;14.676;2023-08-01T08:35:35;22.90;64.30
47825;DHT22;33589;48.242;14.676;2023-08-01T08:38:02;22.70;64.80
47825;DHT22;33589;48.242;14.676;2023-08-01T08:40:31;22.70;65.40
47825;DHT22;33589;48.242;14.676;2023-08-01T08:43:02;22.80;65.50
47825;DHT22;33589;48.242;14.676;2023-08-01T08:45:34;22.90;66.60
47825;DHT22;33589;48.242;14.676;2023-08-01T08:48:02;23.00;66.30
47825;DHT22;33589;48.242;14.676;2023-08-01T08:50:30;23.00;66.60
47825;DHT22;33589;48.242;14.676;2023-08-01T08:52:56;23.00;66.50
47825;DHT22;33589;48.242;14.676;2023-08-01T08:55:23;23.00;65.50
47825;DHT22;33589;48.242;14.676;2023-08-01T08:57:51;23.20;65.40
47825;DHT22;33589;48.242;14.676;2023-08-01T09:00:18;23.30;65.00
47825;DHT22;33589;48.242;14.676;2023-08-01T09:02:44;23.40;65.00
47825;DHT22;33589;48.242;14.676;2023-08-01T09:05:10;23.50;65.00
47825;DHT22;33589;48.242;14.676;2023-08-01T09:07:39;23.60;64.80
47825;DHT22;33589;48.242;14.676;2023-08-01T09:10:07;23.60;64.20
47825;DHT22;33589;48.242;14.676;2023-08-01T09:12:34;23.60;64.50
47825;DHT22;33589;48.242;14.676;2023-08-01T09:15:01;23.80;64.20
47825;DHT22;33589;48.242;14.676;2023-08-01T09:17:26;23.90;63.90
47825;DHT22;33589;48.242;14.676;2023-08-01T09:20:06;24.10;63.50
47825;DHT22;33589;48.242;14.676;2023-08-01T09:22:42;24.00;62.80
47825;DHT22;33589;48.242;14.676;2023-08-01T09:25:08;23.90;62.90
47825;DHT22;33589;48.242;14.676;2023-08-01T09:27:34;23.90;62.30
47825;DHT22;33589;48.242;14.676;2023-08-01T09:30:10;23.80;62.40
47825;DHT22;33589;48.242;14.676;2023-08-01T09:32:37;23.70;62.10
47825;DHT22;33589;48.242;14.676;2023-08-01T09:35:03;23.70;61.90
47825;DHT22;33589;48.242;14.676;2023-08-01T09:37:42;23.60;61.50
47825;DHT22;33589;48.242;14.676;2023-08-01T09:40:09;23.90;61.40
47825;DHT22;33589;48.242;14.676;2023-08-01T09:42:43;23.70;61.00
47825;DHT22;33589;48.242;14.676;2023-08-01T09:45:15;23.80;60.90
47825;DHT22;33589;48.242;14.676;2023-08-01T09:47:42;23.70;60.40
47825;DHT22;33589;48.242;14.676;2023-08-01T09:50:09;23.60;60.50
47825;DHT22;33589;48.242;14.676;2023-08-01T09:52:36;23.60;60.90
47825;DHT22;33589;48.242;14.676;2023-08-01T09:55:02;23.60;61.00
47825;DHT22;33589;48.242;14.676;2023-08-01T09:57:29;23.60;61.10
47825;DHT22;33589;48.242;14.676;2023-08-01T09:59:56;23.60;60.90
47825;DHT22;33589;48.242;14.676;2023-08-01T10:02:25;23.60;61.20
47825;DHT22;33589;48.242;14.676;2023-08-01T10:04:57;23.70;61.70
47825;DHT22;33589;48.242;14.676;2023-08-01T10:07:26;23.90;60.80
47825;DHT22;33589;48.242;14.676;2023-08-01T10:09:55;24.00;60.80
47825;DHT22;33589;48.242;14.676;2023-08-01T10:12:22;24.30;60.40
47825;DHT22;33589;48.242;14.676;2023-08-01T10:14:50;24.50;60.00
47825;DHT22;33589;48.242;14.676;2023-08-01T10:17:16;24.90;60.00
47825;DHT22;33589;48.242;14.676;2023-08-01T10:19:42;25.20;59.10
47825;DHT22;33589;48.242;14.676;2023-08-01T10:22:09;25.50;58.60
47825;DHT22;33589;48.242;14.676;2023-08-01T10:24:35;25.80;57.90
47825;DHT22;33589;48.242;14.676;2023-08-01T10:27:21;26.00;57.50
47825;DHT22;33589;48.242;14.676;2023-08-01T10:30:00;26.00;57.10
47825;DHT22;33589;48.242;14.676;2023-08-01T10:32:34;26.30;56.30
47825;DHT22;33589;48.242;14.676;2023-08-01T10:35:00;26.30;56.00
47825;DHT22;33589;48.242;14.676;2023-08-01T10:37:27;26.10;56.20
47825;DHT22;33589;48.242;14.676;2023-08-01T10:39:59;26.20;57.30
47825;DHT22;33589;48.242;14.676;2023-08-01T10:42:26;25.90;56.80
47825;DHT22;33589;48.242;14.676;2023-08-01T10:44:51;26.30;55.90
47825;DHT22;33589;48.242;14.676;2023-08-01T10:47:27;26.20;56.50
47825;DHT22;33589;48.242;14.676;2023-08-01T10:49:57;26.40;56.00
47825;DHT22;33589;48.242;14.676;2023-08-01T10:52:23;26.30;56.20
47825;DHT22;33589;48.242;14.676;2023-08-01T10:54:56;26.10;55.30
47825;DHT22;33589;48.242;14.676;2023-08-01T10:57:23;25.90;56.40
47825;DHT22;33589;48.242;14.676;2023-08-01T10:59:49;25.70;56.50
47825;DHT22;33589;48.242;14.676;2023-08-01T11:02:20;25.70;57.00
47825;DHT22;33589;48.242;14.676;2023-08-01T11:05:06;25.50;56.70
47825;DHT22;33589;48.242;14.676;2023-08-01T11:07:34;25.40;56.80
47825;DHT22;33589;48.242;14.676;2023-08-01T11:10:10;25.30;57.20
47825;DHT22;33589;48.242;14.676;2023-08-01T11:12:38;25.30;57.50
47825;DHT22;33589;48.242;14.676;2023-08-01T11:15:05;25.10;57.70
47825;DHT22;33589;48.242;14.676;2023-08-01T11:17:34;24.80;58.10
47825;DHT22;33589;48.242;14.676;2023-08-01T11:20:19;24.80;59.10
47825;DHT22;33589;48.242;14.676;2023-08-01T11:22:50;25.20;58.30
47825;DHT22;33589;48.242;14.676;2023-08-01T11:25:16;25.40;57.50
47825;DHT22;33589;48.242;14.676;2023-08-01T11:27:42;25.40;57.60
47825;DHT22;33589;48.242;14.676;2023-08-01T11:30:07;25.40;58.00
47825;DHT22;33589;48.242;14.676;2023-08-01T11:32:36;25.40;57.60
47825;DHT22;33589;48.242;14.676;2023-08-01T11:35:03;25.60;57.00
47825;DHT22;33589;48.242;14.676;2023-08-01T11:37:29;25.70;57.10
47825;DHT22;33589;48.242;14.676;2023-08-01T11:39:55;25.70;56.80
47825;DHT22;33589;48.242;14.676;2023-08-01T11:42:22;25.80;57.20
47825;DHT22;33589;48.242;14.676;2023-08-01T11:44:47;25.60;57.50
47825;DHT22;33589;48.242;14.676;2023-08-01T11:47:14;25.70;57.60
47825;DHT22;33589;48.242;14.676;2023-08-01T11:49:46;25.60;57.20
47825;DHT22;33589;48.242;14.676;2023-08-01T11:52:23;25.60;57.00
47825;DHT22;33589;48.242;14.676;2023-08-01T11:54:48;25.60;57.00
47825;DHT22;33589;48.242;14.676;2023-08-01T11:57:14;25.40;57.70
47825;DHT22;33589;48.242;14.676;2023-08-01T11:59:50;25.20;58.00
47825;DHT22;33589;48.242;14.676;2023-08-01T12:02:24;25.10;58.10
47825;DHT22;33589;48.242;14.676;2023-08-01T12:04:50;25.10;58.30
47825;DHT22;33589;48.242;14.676;2023-08-01T12:07:16;25.10;57.90
47825;DHT22;33589;48.242;14.676;2023-08-01T12:09:42;25.20;58.00
47825;DHT22;33589;48.242;14.676;2023-08-01T12:12:08;25.20;57.80
47825;DHT22;33589;48.242;14.676;2023-08-01T12:14:39;25.50;57.50
47825;DHT22;33589;48.242;14.676;2023-08-01T12:17:05;25.80;57.60
47825;DHT22;33589;48.242;14.676;2023-08-01T12:19:31;26.10;57.00
47825;DHT22;33589;48.242;14.676;2023-08-01T12:21:59;26.50;56.30
47825;DHT22;33589;48.242;14.676;2023-08-01T12:24:25;26.90;56.00
47825;DHT22;33589;48.242;14.676;2023-08-01T12:26:50;27.00;55.00
47825;DHT22;33589;48.242;14.676;2023-08-01T12:29:16;27.10;55.80
47825;DHT22;33589;48.242;14.676;2023-08-01T12:31:41;27.10;54.70
47825;DHT22;33589;48.242;14.676;2023-08-01T12:34:07;27.00;55.60
47825;DHT22;33589;48.242;14.676;2023-08-01T12:36:33;27.30;55.20
47825;DHT22;33589;48.242;14.676;2023-08-01T12:38:58;27.40;54.60
47825;DHT22;33589;48.242;14.676;2023-08-01T12:41:24;27.30;54.70
47825;DHT22;33589;48.242;14.676;2023-08-01T12:43:50;27.60;54.90
47825;DHT22;33589;48.242;14.676;2023-08-01T12:46:15;27.50;54.00
47825;DHT22;33589;48.242;14.676;2023-08-01T12:48:41;27.50;54.80
47825;DHT22;33589;48.242;14.676;2023-08-01T12:51:08;27.40;54.40
47825;DHT22;33589;48.242;14.676;2023-08-01T12:53:33;27.30;54.90
47825;DHT22;33589;48.242;14.676;2023-08-01T12:56:04;26.80;55.60
47825;DHT22;33589;48.242;14.676;2023-08-01T12:58:30;26.30;57.40
47825;DHT22;33589;48.242;14.676;2023-08-01T13:00:56;25.90;62.10
47825;DHT22;33589;48.242;14.676;2023-08-01T13:03:21;25.50;64.50
47825;DHT22;33589;48.242;14.676;2023-08-01T13:05:47;25.80;65.70
47825;DHT22;33589;48.242;14.676;2023-08-01T13:08:12;25.80;65.90
47825;DHT22;33589;48.242;14.676;2023-08-01T13:10:38;25.90;64.70
47825;DHT22;33589;48.242;14.676;2023-08-01T13:13:04;25.80;64.50
47825;DHT22;33589;48.242;14.676;2023-08-01T13:15:30;25.80;64.60
47825;DHT22;33589;48.242;14.676;2023-08-01T13:17:56;26.00;64.40
47825;DHT22;33589;48.242;14.676;2023-08-01T13:20:22;26.10;64.00
47825;DHT22;33589;48.242;14.676;2023-08-01T13:22:51;26.40;64.80
47825;DHT22;33589;48.242;14.676;2023-08-01T13:25:18;26.30;63.70
47825;DHT22;33589;48.242;14.676;2023-08-01T13:27:44;26.40;63.30
47825;DHT22;33589;48.242;14.676;2023-08-01T13:30:09;26.30;62.80
47825;DHT22;33589;48.242;14.676;2023-08-01T13:32:36;26.30;62.90
47825;DHT22;33589;48.242;14.676;2023-08-01T13:35:02;26.20;63.20
47825;DHT22;33589;48.242;14.676;2023-08-01T13:37:27;26.40;62.20
47825;DHT22;33589;48.242;14.676;2023-08-01T13:39:57;26.30;61.70
47825;DHT22;33589;48.242;14.676;2023-08-01T13:42:23;26.30;61.20
47825;DHT22;33589;48.242;14.676;2023-08-01T13:44:48;26.40;61.30
47825;DHT22;33589;48.242;14.676;2023-08-01T13:47:14;26.50;61.50
47825;DHT22;33589;48.242;14.676;2023-08-01T13:49:40;26.60;61.20
47825;DHT22;33589;48.242;14.676;2023-08-01T13:52:06;26.80;61.40
47825;DHT22;33589;48.242;14.676;2023-08-01T13:54:31;26.90;60.40
47825;DHT22;33589;48.242;14.676;2023-08-01T13:56:57;27.20;60.00
47825;DHT22;33589;48.242;14.676;2023-08-01T13:59:23;26.90;60.30
47825;DHT22;33589;48.242;14.676;2023-08-01T14:01:49;27.00;60.40
47825;DHT22;33589;48.242;14.676;2023-08-01T14:04:14;27.20;60.40
47825;DHT22;33589;48.242;14.676;2023-08-01T14:06:41;27.20;60.30
47825;DHT22;33589;48.242;14.676;2023-08-01T14:09:07;27.40;61.80
47825;DHT22;33589;48.242;14.676;2023-08-01T14:11:34;27.60;62.20
47825;DHT22;33589;48.242;14.676;2023-08-01T14:14:00;27.40;59.40
47825;DHT22;33589;48.242;14.676;2023-08-01T14:16:26;27.40;60.30
47825;DHT22;33589;48.242;14.676;2023-08-01T14:18:52;27.30;59.30
47825;DHT22;33589;48.242;14.676;2023-08-01T14:21:17;27.20;59.50
47825;DHT22;33589;48.242;14.676;2023-08-01T14:23:43;27.30;59.10
47825;DHT22;33589;48.242;14.676;2023-08-01T14:26:09;27.40;58.30
47825;DHT22;33589;48.242;14.676;2023-08-01T14:28:35;27.40;57.90
47825;DHT22;33589;48.242;14.676;2023-08-01T14:31:02;27.50;58.10
47825;DHT22;33589;48.242;14.676;2023-08-01T14:33:27;27.40;58.10
47825;DHT22;33589;48.242;14.676;2023-08-01T14:35:54;27.20;57.80
47825;DHT22;33589;48.242;14.676;2023-08-01T14:38:20;27.20;57.60
47825;DHT22;33589;48.242;14.676;2023-08-01T14:40:45;27.30;57.90
47825;DHT22;33589;48.242;14.676;2023-08-01T14:43:11;27.20;58.10
47825;DHT22;33589;48.242;14.676;2023-08-01T14:45:39;27.00;57.90
47825;DHT22;33589;48.242;14.676;2023-08-01T14:48:08;27.00;58.60
47825;DHT22;33589;48.242;14.676;2023-08-01T14:50:34;27.00;59.00
47825;DHT22;33589;48.242;14.676;2023-08-01T14:53:00;27.10;59.20
47825;DHT22;33589;48.242;14.676;2023-08-01T14:55:28;27.10;59.00
47825;DHT22;33589;48.242;14.676;2023-08-01T14:57:54;27.00;59.20
47825;DHT22;33589;48.242;14.676;2023-08-01T15:00:20;26.90;59.20
47825;DHT22;33589;48.242;14.676;2023-08-01T15:02:45;26.70;59.50
47825;DHT22;33589;48.242;14.676;2023-08-01T15:05:12;26.70;60.00
47825;DHT22;33589;48.242;14.676;2023-08-01T15:07:38;26.80;60.00
47825;DHT22;33589;48.242;14.676;2023-08-01T15:10:03;26.70;59.70
47825;DHT22;33589;48.242;14.676;2023-08-01T15:12:29;26.60;59.80